Other Surface Observations
Issued by NWS Great Falls, MT

Home | Current Version | Previous Version | Text Only | Print | Product List | Glossary On
Versions: 1 2 3 4 5 6 7 8 9 10 11 12 13 14 15 16 17 18 19 20 21 22 23 24 25 26 27 28 29 30 31 32 33 34 35 36 37 38 39 40 41 42 43 44 45 46 47 48 49 50
901
SXUS55 KTFX 241629
OSOTFX
AREA AWOS OBSERVATIONS
NATIONAL WEATHER SERVICE GREAT FALLS MT
1029 AM MDT FRI MAR 24 2017

METAR KPWD 241630Z AUTO 00000KT 7SM 04/03 A3010 RMK PLENTYWOOD
METAR KPO1 241630Z AUTO 14003KT 3/4SM 06/01 A3009 RMK POPLAR
METAR K1S3 241630Z AUTO 03004KT 10SM 09/04 A3008 RMK FORSYTH
METAR KS71 241630Z AUTO 08006KT 10SM 06/M02 A3000 RMK CHINOOK
METAR K79S 241630Z AUTO 10SM 04/M04 A2998 RMK FORT BENTON
METAR K38S 241630Z AUTO 05003KT 10SM 02/M04 A2999 RMK DEER LODGE
METAR K3U3 241630Z AUTO 12011G15KT 10SM 07/M06 A2997 RMK ANACONDA
METAR K6S5 241630Z AUTO 00000KT 10SM 02/M03 A2997 RMK HAMILTON
METAR K88M 241630Z AUTO 00000KT 10SM 01/M03 A2997 RMK EUREKA



USA.gov is the U.S. government's official web portal to all federal, state and local government web resources and services.